createdAt,value
2019-06-10T00:00:41.888Z,19.30
2019-06-10T00:03:11.937Z,19.30
2019-06-10T00:05:41.629Z,19.30
2019-06-10T00:08:12.351Z,19.30
2019-06-10T00:10:42.031Z,19.20
2019-06-10T00:13:11.981Z,19.20
2019-06-10T00:15:41.420Z,19.20
2019-06-10T00:18:34.388Z,19.20
2019-06-10T00:20:41.342Z,19.20
2019-06-10T00:23:12.241Z,19.10
2019-06-10T00:25:41.471Z,19.20
2019-06-10T00:28:12.166Z,19.20
2019-06-10T00:30:41.617Z,19.10
2019-06-10T00:33:12.685Z,19.10
2019-06-10T00:35:41.388Z,19.10
2019-06-10T00:38:13.772Z,19.00
2019-06-10T00:40:41.644Z,19.00
2019-06-10T00:43:13.059Z,18.90
2019-06-10T00:45:41.195Z,18.90
2019-06-10T00:48:21.633Z,18.80
2019-06-10T00:50:41.571Z,18.70
2019-06-10T00:53:13.996Z,18.80
2019-06-10T00:55:41.724Z,18.70
2019-06-10T00:58:13.445Z,18.60
2019-06-10T01:00:41.845Z,18.70
2019-06-10T01:03:13.524Z,18.60
2019-06-10T01:05:42.176Z,18.60
2019-06-10T01:08:13.900Z,18.50
2019-06-10T01:10:43.850Z,18.50
2019-06-10T01:13:15.288Z,18.40
2019-06-10T01:15:43.282Z,18.40
2019-06-10T01:18:30.300Z,18.30
2019-06-10T01:20:42.546Z,18.20
2019-06-10T01:23:13.472Z,18.20
2019-06-10T01:25:42.542Z,18.20
2019-06-10T01:28:13.373Z,18.10
2019-06-10T01:30:42.055Z,18.10
2019-06-10T01:33:11.434Z,18.10
2019-06-10T01:35:41.678Z,18.10
2019-06-10T01:38:13.038Z,18.00
2019-06-10T01:40:42.129Z,18.00
2019-06-10T01:43:13.550Z,18.00
2019-06-10T01:45:42.076Z,18.00
2019-06-10T01:48:12.095Z,17.90
2019-06-10T01:51:01.740Z,17.90
2019-06-10T01:53:31.412Z,17.90
2019-06-10T01:56:01.008Z,17.80
2019-06-10T01:58:31.560Z,17.80
2019-06-10T02:01:16.920Z,17.70
2019-06-10T02:03:44.391Z,17.70
2019-06-10T02:06:17.678Z,17.70
2019-06-10T02:08:43.165Z,17.60
2019-06-10T02:11:14.461Z,17.60
2019-06-10T02:13:42.187Z,17.60
2019-06-10T02:16:14.169Z,17.50
2019-06-10T02:18:48.994Z,17.40
2019-06-10T02:21:14.545Z,17.40
2019-06-10T02:23:41.670Z,17.40
2019-06-10T02:26:11.900Z,17.30
2019-06-10T02:28:40.742Z,17.30
2019-06-10T02:31:12.664Z,17.30
2019-06-10T02:33:42.060Z,17.20
2019-06-10T02:36:09.906Z,17.10
2019-06-10T02:38:39.840Z,17.10
2019-06-10T02:41:08.755Z,17.10
2019-06-10T02:43:38.472Z,17.00
2019-06-10T02:46:07.188Z,17.00
2019-06-10T02:48:35.833Z,16.90
2019-06-10T02:51:06.614Z,16.90
2019-06-10T02:53:37.002Z,16.90
2019-06-10T02:56:07.707Z,16.80
2019-06-10T02:58:39.554Z,16.80
2019-06-10T03:01:07.298Z,16.70
2019-06-10T03:03:43.728Z,16.70
2019-06-10T03:06:08.660Z,16.60
2019-06-10T03:08:37.033Z,16.60
2019-06-10T03:11:05.882Z,16.60
2019-06-10T03:13:34.668Z,16.60
2019-06-10T03:16:07.859Z,16.60
2019-06-10T03:18:36.404Z,16.60
2019-06-10T03:21:05.009Z,16.60
2019-06-10T03:23:33.578Z,16.60
2019-06-10T03:26:04.120Z,16.70
2019-06-10T03:28:32.588Z,16.70
2019-06-10T03:31:05.364Z,16.70
2019-06-10T03:33:40.949Z,16.80
2019-06-10T03:36:03.292Z,16.80
2019-06-10T03:38:32.676Z,16.80
2019-06-10T03:41:03.218Z,16.90
2019-06-10T03:43:32.921Z,16.90
2019-06-10T03:46:03.153Z,16.90
2019-06-10T03:48:32.799Z,16.90
2019-06-10T03:51:03.350Z,16.90
2019-06-10T03:53:33.703Z,17.00
2019-06-10T03:56:02.690Z,17.00
2019-06-10T03:58:32.728Z,17.00
2019-06-10T04:01:03.075Z,17.10
2019-06-10T04:03:33.836Z,17.10
2019-06-10T04:06:02.752Z,17.10
2019-06-10T04:08:32.924Z,17.20
2019-06-10T04:11:02.883Z,17.20
2019-06-10T04:13:33.844Z,17.20
2019-06-10T04:16:02.728Z,17.20
2019-06-10T04:18:32.803Z,17.20
2019-06-10T04:21:02.502Z,17.30
2019-06-10T04:23:33.433Z,17.30
2019-06-10T04:26:02.497Z,17.30
2019-06-10T04:28:33.473Z,17.30
2019-06-10T04:31:02.504Z,17.30
2019-06-10T04:33:32.846Z,17.30
2019-06-10T04:36:03.001Z,17.40
2019-06-10T04:38:32.815Z,17.50
2019-06-10T04:41:03.443Z,17.50
2019-06-10T04:43:32.726Z,17.60
2019-06-10T04:46:02.440Z,17.60
2019-06-10T04:48:32.821Z,17.60
2019-06-10T04:51:04.604Z,17.60
2019-06-10T04:53:33.292Z,17.60
2019-06-10T04:56:03.037Z,17.60
2019-06-10T04:58:33.455Z,17.60
2019-06-10T05:01:03.186Z,17.60
2019-06-10T05:03:32.840Z,17.60
2019-06-10T05:06:03.267Z,17.70
2019-06-10T05:08:33.657Z,17.70
2019-06-10T05:11:03.593Z,17.70
2019-06-10T05:13:33.687Z,17.80
2019-06-10T05:16:03.691Z,17.80
2019-06-10T05:18:33.410Z,17.80
2019-06-10T05:21:02.920Z,17.90
2019-06-10T05:23:32.867Z,17.90
2019-06-10T05:26:02.856Z,17.90
2019-06-10T05:28:33.903Z,18.00
2019-06-10T05:31:02.746Z,18.00
2019-06-10T05:33:33.496Z,18.10
2019-06-10T05:36:02.586Z,18.10
2019-06-10T05:38:35.203Z,18.20
2019-06-10T05:41:02.991Z,18.20
2019-06-10T05:43:34.369Z,18.30
2019-06-10T05:46:02.887Z,18.30
2019-06-10T05:48:33.690Z,18.30
2019-06-10T05:51:06.434Z,18.40
2019-06-10T05:53:34.058Z,18.50
2019-06-10T05:56:02.810Z,18.60
2019-06-10T05:58:34.194Z,18.60
2019-06-10T06:01:02.779Z,18.70
2019-06-10T06:03:36.247Z,18.90
2019-06-10T06:06:03.232Z,18.90
2019-06-10T06:08:34.025Z,19.00
2019-06-10T06:11:03.262Z,19.00
2019-06-10T06:13:35.434Z,19.00
2019-06-10T06:16:03.325Z,19.10
2019-06-10T06:18:34.685Z,19.10
2019-06-10T06:21:19.419Z,19.20
2019-06-10T06:23:33.850Z,19.40
2019-06-10T06:26:03.891Z,19.50
2019-06-10T06:28:34.676Z,19.50
2019-06-10T06:31:03.533Z,19.60
2019-06-10T06:33:35.967Z,19.60
2019-06-10T06:36:03.480Z,19.70
2019-06-10T06:38:34.037Z,19.60
2019-06-10T06:41:03.357Z,19.60
2019-06-10T06:43:37.226Z,19.60
2019-06-10T06:46:02.704Z,19.60
2019-06-10T06:48:35.699Z,19.50
2019-06-10T06:51:08.161Z,19.50
2019-06-10T06:53:43.769Z,19.50
2019-06-10T06:56:03.521Z,19.40
2019-06-10T06:58:35.171Z,19.50
2019-06-10T07:01:25.618Z,19.50
2019-06-10T07:03:53.570Z,19.60
2019-06-10T07:06:23.828Z,19.70
2019-06-10T07:09:04.061Z,19.80
2019-06-10T07:11:25.106Z,19.80
2019-06-10T07:13:55.215Z,19.80
2019-06-10T07:16:23.877Z,19.80
2019-06-10T07:18:53.889Z,19.70
2019-06-10T07:21:23.023Z,19.80
2019-06-10T07:23:52.886Z,19.90
2019-06-10T07:26:22.169Z,20.10
2019-06-10T07:28:53.474Z,20.20
2019-06-10T07:31:26.945Z,20.40
2019-06-10T07:33:52.627Z,20.40
2019-06-10T07:36:23.590Z,20.50
2019-06-10T07:38:54.059Z,20.50
2019-06-10T07:41:23.232Z,20.60
2019-06-10T07:43:53.066Z,20.70
2019-06-10T07:46:22.982Z,20.80
2019-06-10T07:48:55.709Z,20.90
2019-06-10T07:51:22.760Z,20.90
2019-06-10T07:53:52.529Z,21.00
2019-06-10T07:56:23.401Z,21.10
2019-06-10T07:58:52.735Z,21.30
2019-06-10T08:01:22.918Z,21.20
2019-06-10T08:03:52.801Z,21.30
2019-06-10T08:06:22.935Z,21.30
2019-06-10T08:08:53.125Z,21.30
2019-06-10T08:11:22.911Z,21.40
2019-06-10T08:13:53.923Z,21.60
2019-06-10T08:16:23.637Z,21.80
2019-06-10T08:19:20.545Z,22.00
2019-06-10T08:21:23.100Z,22.20
2019-06-10T08:23:56.625Z,22.40
2019-06-10T08:26:25.283Z,22.50
2019-06-10T08:28:54.013Z,22.60
2019-06-10T08:31:22.866Z,22.70
2019-06-10T08:33:53.529Z,22.70
2019-06-10T08:36:22.983Z,22.70
2019-06-10T08:38:52.676Z,22.80
2019-06-10T08:41:23.126Z,22.70
2019-06-10T08:43:53.018Z,22.60
2019-06-10T08:46:22.586Z,22.70
2019-06-10T08:48:52.509Z,22.80
2019-06-10T08:51:23.636Z,22.90
2019-06-10T08:53:53.204Z,22.90
2019-06-10T08:56:23.437Z,22.80
2019-06-10T08:58:54.063Z,22.80
2019-06-10T09:01:22.599Z,22.90
2019-06-10T09:03:53.455Z,22.80
2019-06-10T09:06:23.116Z,22.80
2019-06-10T09:08:54.690Z,22.80
2019-06-10T09:11:23.791Z,23.00
2019-06-10T09:13:53.372Z,22.80
2019-06-10T09:16:22.865Z,22.70
2019-06-10T09:18:54.906Z,22.60
2019-06-10T09:21:22.440Z,22.70
2019-06-10T09:23:59.028Z,22.70
2019-06-10T09:26:22.903Z,22.80
2019-06-10T09:28:55.774Z,22.80
2019-06-10T09:31:23.288Z,22.70
2019-06-10T09:33:56.655Z,22.70
2019-06-10T09:36:23.700Z,22.90
2019-06-10T09:38:55.076Z,23.00
2019-06-10T09:41:36.029Z,23.00
2019-06-10T09:43:57.016Z,23.00
2019-06-10T09:46:25.582Z,23.00
2019-06-10T09:48:56.200Z,23.00
2019-06-10T09:51:25.688Z,23.10
2019-06-10T09:54:02.362Z,23.20
2019-06-10T09:56:24.879Z,23.40
2019-06-10T09:58:55.405Z,23.50
2019-06-10T10:01:24.684Z,23.50
2019-06-10T10:03:59.769Z,23.60
2019-06-10T10:06:24.588Z,23.70
2019-06-10T10:08:58.007Z,23.80
2019-06-10T10:11:27.605Z,23.90
2019-06-10T10:13:54.516Z,23.90
2019-06-10T10:16:23.246Z,23.80
2019-06-10T10:18:59.334Z,23.90
2019-06-10T10:21:22.531Z,24.10
2019-06-10T10:24:06.537Z,24.30
2019-06-10T10:26:21.554Z,24.60
2019-06-10T10:28:52.105Z,24.80
2019-06-10T10:31:23.026Z,24.90
2019-06-10T10:33:52.556Z,25.00
2019-06-10T10:36:22.631Z,25.30
2019-06-10T10:38:52.318Z,25.50
2019-06-10T10:41:23.438Z,25.60
2019-06-10T10:43:56.555Z,25.60
2019-06-10T10:46:23.107Z,25.70
2019-06-10T10:48:55.206Z,25.90
2019-06-10T10:51:23.091Z,26.10
2019-06-10T10:54:19.019Z,26.20
2019-06-10T10:56:22.448Z,26.20
2019-06-10T10:58:55.590Z,26.10
2019-06-10T11:01:23.599Z,26.20
2019-06-10T11:03:58.192Z,26.30
2019-06-10T11:06:23.319Z,26.30
2019-06-10T11:08:57.432Z,26.30
2019-06-10T11:11:24.114Z,26.30
2019-06-10T11:13:56.706Z,26.30
2019-06-10T11:16:23.746Z,26.40
2019-06-10T11:18:56.189Z,26.50
2019-06-10T11:21:22.930Z,26.70
2019-06-10T11:23:53.780Z,26.90
2019-06-10T11:26:22.854Z,27.30
2019-06-10T11:28:54.439Z,27.50
2019-06-10T11:31:22.781Z,27.60
2019-06-10T11:33:57.021Z,27.70
2019-06-10T11:36:22.899Z,27.80
2019-06-10T11:38:55.114Z,27.90
2019-06-10T11:41:23.719Z,27.90
2019-06-10T11:43:56.019Z,28.00
2019-06-10T11:46:22.809Z,28.30
2019-06-10T11:48:54.016Z,28.50
2019-06-10T11:51:23.405Z,28.70
2019-06-10T11:53:54.525Z,28.70
2019-06-10T11:56:22.383Z,28.50
2019-06-10T11:58:55.152Z,28.20
2019-06-10T12:01:22.848Z,27.90
2019-06-10T12:03:54.004Z,27.80
2019-06-10T12:06:22.849Z,27.80
2019-06-10T12:08:55.396Z,27.90
2019-06-10T12:11:23.061Z,28.20
2019-06-10T12:13:57.810Z,28.50
2019-06-10T12:18:56.681Z,29.00
2019-06-10T12:21:24.288Z,30.00
2019-06-10T12:23:56.959Z,31.30
2019-06-10T12:26:23.603Z,32.10
2019-06-10T12:28:54.605Z,32.50
2019-06-10T12:31:23.295Z,33.20
2019-06-10T12:33:55.282Z,33.70
2019-06-10T12:36:23.854Z,34.90
2019-06-10T12:38:57.465Z,36.40
2019-06-10T12:41:23.472Z,37.40
2019-06-10T12:43:53.535Z,38.20
2019-06-10T12:46:23.452Z,38.70
2019-06-10T12:48:54.899Z,38.70
2019-06-10T12:51:23.041Z,39.90
2019-06-10T12:53:53.144Z,40.60
2019-06-10T12:56:22.824Z,40.40
2019-06-10T12:58:54.044Z,39.30
2019-06-10T13:01:22.479Z,38.50
2019-06-10T13:03:53.603Z,37.40
2019-06-10T13:06:23.494Z,36.60
2019-06-10T13:08:56.326Z,35.70
2019-06-10T13:11:25.637Z,34.90
2019-06-10T13:13:56.121Z,34.10
2019-06-10T13:16:24.720Z,33.50
2019-06-10T13:18:53.878Z,33.10
2019-06-10T13:21:22.951Z,33.00
2019-06-10T13:23:54.120Z,32.90
2019-06-10T13:26:23.198Z,32.60
2019-06-10T13:28:52.628Z,32.30
2019-06-10T13:31:23.602Z,32.00
2019-06-10T13:33:52.926Z,31.70
2019-06-10T13:36:25.893Z,31.60
2019-06-10T13:38:53.246Z,31.90
2019-06-10T13:41:22.757Z,32.30
2019-06-10T13:43:52.789Z,32.20
2019-06-10T13:46:24.340Z,32.00
2019-06-10T13:48:52.389Z,31.70
2019-06-10T13:51:21.112Z,31.20
2019-06-10T13:53:49.777Z,30.70
2019-06-10T13:56:39.827Z,30.40
2019-06-10T13:58:48.884Z,30.10
2019-06-10T14:01:21.971Z,30.00
2019-06-10T14:03:47.977Z,30.10
2019-06-10T14:06:32.659Z,29.90
2019-06-10T14:08:47.082Z,29.70
2019-06-10T14:11:15.858Z,29.40
2019-06-10T14:13:44.675Z,29.20
2019-06-10T14:16:15.064Z,29.00
2019-06-10T14:18:43.676Z,28.90
2019-06-10T14:21:17.978Z,28.70
2019-06-10T14:23:42.714Z,28.50
2019-06-10T14:26:16.446Z,28.40
2019-06-10T14:28:44.454Z,28.30
2019-06-10T14:31:33.721Z,28.20
2019-06-10T14:33:43.017Z,28.20
2019-06-10T14:36:15.049Z,28.20
2019-06-10T14:38:43.457Z,28.20
2019-06-10T14:41:12.363Z,28.10
2019-06-10T14:43:42.353Z,28.10
2019-06-10T14:46:14.359Z,28.10
2019-06-10T14:48:42.710Z,28.20
2019-06-10T14:51:13.853Z,28.40
2019-06-10T14:53:42.673Z,28.80
2019-06-10T14:56:14.844Z,29.10
2019-06-10T14:58:42.443Z,29.10
2019-06-10T15:01:13.432Z,28.90
2019-06-10T15:03:42.973Z,28.70
2019-06-10T15:06:11.832Z,28.60
2019-06-10T15:08:42.700Z,28.60
2019-06-10T15:11:11.681Z,28.70
2019-06-10T15:13:43.278Z,28.70
2019-06-10T15:16:12.187Z,28.70
2019-06-10T15:18:43.150Z,28.60
2019-06-10T15:21:11.456Z,28.60
2019-06-10T15:23:42.457Z,28.50
2019-06-10T15:26:13.127Z,28.40
2019-06-10T15:28:42.742Z,28.30
2019-06-10T15:31:13.492Z,28.30
2019-06-10T15:33:43.094Z,28.30
2019-06-10T15:36:13.086Z,28.20
2019-06-10T15:38:44.094Z,28.10
2019-06-10T15:41:16.035Z,28.00
2019-06-10T15:43:42.726Z,27.90
2019-06-10T15:46:12.930Z,27.80
2019-06-10T15:48:42.998Z,27.70
2019-06-10T15:51:15.329Z,27.60
2019-06-10T15:53:43.130Z,27.50
2019-06-10T15:56:22.554Z,27.40
2019-06-10T15:58:42.960Z,27.30
2019-06-10T16:01:14.492Z,27.30
2019-06-10T16:03:42.462Z,27.20
2019-06-10T16:06:12.166Z,27.30
2019-06-10T16:08:43.029Z,27.40
2019-06-10T16:11:15.403Z,27.40
2019-06-10T16:13:43.022Z,27.40
2019-06-10T16:16:12.819Z,27.20
2019-06-10T16:18:42.300Z,26.80
2019-06-10T16:21:13.363Z,26.50
2019-06-10T16:23:43.046Z,26.10
2019-06-10T16:26:13.105Z,25.90
2019-06-10T16:28:42.804Z,25.90
2019-06-10T16:31:13.171Z,25.90
2019-06-10T16:33:49.155Z,26.00
2019-06-10T16:36:12.380Z,25.90
2019-06-10T16:38:42.325Z,25.80
2019-06-10T16:41:12.294Z,25.90
2019-06-10T16:43:42.820Z,25.90
2019-06-10T16:46:11.696Z,25.90
2019-06-10T16:48:41.329Z,26.00
2019-06-10T16:51:13.211Z,26.30
2019-06-10T16:53:42.656Z,26.40
2019-06-10T16:56:12.146Z,26.50
2019-06-10T16:58:43.108Z,26.40
2019-06-10T17:01:12.368Z,26.10
2019-06-10T17:03:42.523Z,25.80
2019-06-10T17:06:13.053Z,25.60
2019-06-10T17:08:42.614Z,25.50
2019-06-10T17:11:12.432Z,25.40
2019-06-10T17:13:42.265Z,25.40
2019-06-10T17:16:12.733Z,25.40
2019-06-10T17:18:41.693Z,25.30
2019-06-10T17:21:13.021Z,25.30
2019-06-10T17:23:43.141Z,25.30
2019-06-10T17:26:11.158Z,25.20
2019-06-10T17:28:39.746Z,25.20
2019-06-10T17:31:08.514Z,25.00
2019-06-10T17:33:37.247Z,25.00
2019-06-10T17:36:05.986Z,24.90
2019-06-10T17:38:34.730Z,24.90
2019-06-10T17:41:03.469Z,24.80
2019-06-10T17:43:34.033Z,24.70
2019-06-10T17:46:03.287Z,24.70
2019-06-10T17:48:33.755Z,24.60
2019-06-10T17:51:02.636Z,24.50
2019-06-10T17:53:34.731Z,24.50
2019-06-10T17:56:03.333Z,24.40
2019-06-10T17:58:47.532Z,24.30
2019-06-10T18:01:02.737Z,24.10
2019-06-10T18:03:31.522Z,24.00
2019-06-10T18:06:02.589Z,23.90
2019-06-10T18:08:32.368Z,23.80
2019-06-10T18:11:03.070Z,23.70
2019-06-10T18:13:33.112Z,23.40
2019-06-10T18:16:02.745Z,22.40
2019-06-10T18:18:35.573Z,21.20
2019-06-10T18:21:03.449Z,20.60
2019-06-10T18:23:33.087Z,20.50
2019-06-10T18:26:03.280Z,20.20
2019-06-10T18:28:45.358Z,20.10
2019-06-10T18:31:02.780Z,20.10
2019-06-10T18:33:34.192Z,20.10
2019-06-10T18:36:02.144Z,20.10
2019-06-10T18:38:34.004Z,20.10
2019-06-10T18:41:03.231Z,20.10
2019-06-10T18:43:33.569Z,20.10
2019-06-10T18:46:03.415Z,20.10
2019-06-10T18:48:36.122Z,20.10
2019-06-10T18:51:03.076Z,20.10
2019-06-10T18:53:33.575Z,20.00
2019-06-10T18:56:03.187Z,19.90
2019-06-10T18:58:34.273Z,19.80
2019-06-10T19:01:07.181Z,19.80
2019-06-10T19:03:34.711Z,19.80
2019-06-10T19:06:03.200Z,19.70
2019-06-10T19:08:35.471Z,19.70
2019-06-10T19:11:02.526Z,19.70
2019-06-10T19:13:33.942Z,19.70
2019-06-10T19:16:02.347Z,19.60
2019-06-10T19:18:31.919Z,19.60
2019-06-10T19:21:03.560Z,19.50
2019-06-10T19:23:33.419Z,19.40
2019-06-10T19:26:02.989Z,19.30
2019-06-10T19:28:33.887Z,19.30
2019-06-10T19:31:02.411Z,19.20
2019-06-10T19:33:34.107Z,19.20
2019-06-10T19:36:02.215Z,19.10
2019-06-10T19:38:32.394Z,19.10
2019-06-10T19:41:02.659Z,19.10
2019-06-10T19:43:34.592Z,19.00
2019-06-10T19:46:04.279Z,19.00
2019-06-10T19:48:35.262Z,19.00
2019-06-10T19:51:03.213Z,19.10
2019-06-10T19:53:32.986Z,19.10
2019-06-10T19:56:02.748Z,19.10
2019-06-10T19:58:32.386Z,19.10
2019-06-10T20:01:01.178Z,19.00
2019-06-10T20:03:29.913Z,18.90
2019-06-10T20:05:58.491Z,18.80
2019-06-10T20:08:27.169Z,18.80
2019-06-10T20:10:55.835Z,18.70
2019-06-10T20:13:24.494Z,18.60
2019-06-10T20:15:53.255Z,18.40
2019-06-10T20:18:22.641Z,18.20
2019-06-10T20:20:54.102Z,17.90
2019-06-10T20:23:22.283Z,17.60
2019-06-10T20:25:52.702Z,17.50
2019-06-10T20:28:22.363Z,17.30
2019-06-10T20:30:53.003Z,17.20
2019-06-10T20:33:36.439Z,17.10
2019-06-10T20:36:06.946Z,17.00
2019-06-10T20:38:33.764Z,16.90
2019-06-10T20:41:02.842Z,16.90
2019-06-10T20:43:32.807Z,16.90
2019-06-10T20:46:02.886Z,17.00
2019-06-10T20:48:33.571Z,17.00
2019-06-10T20:51:03.153Z,17.10
2019-06-10T20:53:33.767Z,17.00
2019-06-10T20:56:03.723Z,17.00
2019-06-10T20:58:33.273Z,17.00
2019-06-10T21:01:04.715Z,17.00
2019-06-10T21:03:32.597Z,17.00
2019-06-10T21:06:03.322Z,17.00
2019-06-10T21:08:33.728Z,17.00
2019-06-10T21:11:03.116Z,17.00
2019-06-10T21:13:32.935Z,17.00
2019-06-10T21:16:03.631Z,17.10
2019-06-10T21:18:32.955Z,17.10
2019-06-10T21:21:01.988Z,17.10
2019-06-10T21:23:30.763Z,17.10
2019-06-10T21:25:59.440Z,17.10
2019-06-10T21:28:28.379Z,17.10
2019-06-10T21:30:58.847Z,17.10
2019-06-10T21:33:27.496Z,17.10
2019-06-10T21:35:56.232Z,17.10
2019-06-10T21:38:24.960Z,17.10
2019-06-10T21:40:54.198Z,17.20
2019-06-10T21:43:22.940Z,17.20
2019-06-10T21:45:57.441Z,17.20
2019-06-10T21:48:22.984Z,17.20
2019-06-10T21:50:55.830Z,17.20
2019-06-10T21:53:22.452Z,17.20
2019-06-10T21:55:53.493Z,17.20
2019-06-10T21:58:22.488Z,17.30
2019-06-10T22:01:06.547Z,17.30
2019-06-10T22:03:23.409Z,17.30
2019-06-10T22:05:53.675Z,17.20
2019-06-10T22:08:22.677Z,17.30
2019-06-10T22:10:54.603Z,17.30
2019-06-10T22:13:22.418Z,17.30
2019-06-10T22:15:54.450Z,17.30
2019-06-10T22:18:22.925Z,17.30
2019-06-10T22:20:56.034Z,17.30
2019-06-10T22:23:23.185Z,17.40
2019-06-10T22:25:55.678Z,17.40
2019-06-10T22:28:22.566Z,17.40
2019-06-10T22:30:55.654Z,17.40
2019-06-10T22:33:22.644Z,17.40
2019-06-10T22:35:55.395Z,17.40
2019-06-10T22:38:22.306Z,17.40
2019-06-10T22:40:53.329Z,17.40
2019-06-10T22:43:23.538Z,17.30
2019-06-10T22:45:53.915Z,17.30
2019-06-10T22:48:22.561Z,17.30
2019-06-10T22:50:51.295Z,17.30
2019-06-10T22:53:19.965Z,17.30
2019-06-10T22:55:48.561Z,17.30
2019-06-10T22:58:17.190Z,17.20
2019-06-10T23:00:46.187Z,17.20
2019-06-10T23:03:15.024Z,17.20
2019-06-10T23:05:43.744Z,17.20
2019-06-10T23:08:12.788Z,17.20
2019-06-10T23:10:42.850Z,17.10
2019-06-10T23:13:13.306Z,17.10
2019-06-10T23:15:42.922Z,17.10
2019-06-10T23:18:12.760Z,17.10
2019-06-10T23:20:42.728Z,17.00
2019-06-10T23:23:12.721Z,17.10
2019-06-10T23:25:42.949Z,17.10
2019-06-10T23:28:13.083Z,17.00
2019-06-10T23:30:42.613Z,17.00
2019-06-10T23:33:12.502Z,17.10
2019-06-10T23:35:42.979Z,17.00
2019-06-10T23:38:13.151Z,17.00
2019-06-10T23:40:42.929Z,17.00
2019-06-10T23:43:13.227Z,17.10
2019-06-10T23:45:42.430Z,17.10
2019-06-10T23:48:13.379Z,17.10
2019-06-10T23:50:43.706Z,17.10
2019-06-10T23:53:13.125Z,17.10
2019-06-10T23:55:42.771Z,17.10
2019-06-10T23:58:12.890Z,17.10
